sensor_id;sensor_type;location;lat;lon;timestamp;pressure;altitude;pressure_sealevel;temperature;humidity
53522;BME280;39398;48.382;9.802;2023-01-27T00:03:50;93772.41;;;-2.90;100.00
53522;BME280;39398;48.382;9.802;2023-01-27T00:08:52;93776.94;;;-3.05;100.00
53522;BME280;39398;48.382;9.802;2023-01-27T00:13:54;93778.28;;;-3.23;100.00
53522;BME280;39398;48.382;9.802;2023-01-27T00:18:57;93776.53;;;-3.22;100.00
53522;BME280;39398;48.382;9.802;2023-01-27T00:23:58;93762.00;;;-3.23;100.00
53522;BME280;39398;48.382;9.802;2023-01-27T00:29:00;93767.16;;;-3.23;100.00
53522;BME280;39398;48.382;9.802;2023-01-27T00:34:04;93766.25;;;-3.11;100.00
53522;BME280;39398;48.382;9.802;2023-01-27T00:39:07;93769.66;;;-3.11;100.00
53522;BME280;39398;48.382;9.802;2023-01-27T00:44:09;93764.25;;;-3.19;100.00
53522;BME280;39398;48.382;9.802;2023-01-27T00:49:11;93773.91;;;-2.87;100.00
53522;BME280;39398;48.382;9.802;2023-01-27T00:54:13;93777.31;;;-2.98;100.00
53522;BME280;39398;48.382;9.802;2023-01-27T00:59:15;93769.97;;;-2.80;100.00
53522;BME280;39398;48.382;9.802;2023-01-27T01:04:18;93774.22;;;-3.14;100.00
53522;BME280;39398;48.382;9.802;2023-01-27T01:09:19;93774.72;;;-2.98;100.00
53522;BME280;39398;48.382;9.802;2023-01-27T01:14:21;93785.94;;;-2.86;100.00
53522;BME280;39398;48.382;9.802;2023-01-27T01:19:24;93764.81;;;-2.46;100.00
53522;BME280;39398;48.382;9.802;2023-01-27T01:24:25;93780.16;;;-2.90;100.00
53522;BME280;39398;48.382;9.802;2023-01-27T01:29:27;93783.78;;;-2.92;100.00
53522;BME280;39398;48.382;9.802;2023-01-27T01:34:30;93780.72;;;-3.09;100.00
53522;BME280;39398;48.382;9.802;2023-01-27T01:39:32;93764.72;;;-3.14;100.00
53522;BME280;39398;48.382;9.802;2023-01-27T01:44:33;93767.66;;;-3.18;100.00
53522;BME280;39398;48.382;9.802;2023-01-27T01:49:38;93778.91;;;-3.19;100.00
53522;BME280;39398;48.382;9.802;2023-01-27T01:54:42;93770.31;;;-2.73;100.00
53522;BME280;39398;48.382;9.802;2023-01-27T01:59:46;93759.91;;;-3.07;100.00
53522;BME280;39398;48.382;9.802;2023-01-27T02:04:54;93765.22;;;-2.97;100.00
53522;BME280;39398;48.382;9.802;2023-01-27T02:09:57;93756.69;;;-2.87;100.00
53522;BME280;39398;48.382;9.802;2023-01-27T02:15:00;93752.63;;;-3.13;100.00
53522;BME280;39398;48.382;9.802;2023-01-27T02:20:06;93765.88;;;-3.18;100.00
53522;BME280;39398;48.382;9.802;2023-01-27T02:25:16;93756.09;;;-2.79;100.00
53522;BME280;39398;48.382;9.802;2023-01-27T02:30:21;93759.59;;;-3.02;100.00
53522;BME280;39398;48.382;9.802;2023-01-27T02:35:29;93760.66;;;-2.94;100.00
53522;BME280;39398;48.382;9.802;2023-01-27T02:40:35;93757.16;;;-2.82;100.00
53522;BME280;39398;48.382;9.802;2023-01-27T02:45:38;93750.31;;;-2.94;100.00
53522;BME280;39398;48.382;9.802;2023-01-27T02:50:40;93738.38;;;-2.72;100.00
53522;BME280;39398;48.382;9.802;2023-01-27T02:55:42;93724.75;;;-2.63;100.00
53522;BME280;39398;48.382;9.802;2023-01-27T03:00:45;93714.47;;;-2.08;100.00
53522;BME280;39398;48.382;9.802;2023-01-27T03:05:46;93725.25;;;-2.58;100.00
53522;BME280;39398;48.382;9.802;2023-01-27T03:10:49;93729.91;;;-2.74;100.00
53522;BME280;39398;48.382;9.802;2023-01-27T03:15:53;93738.72;;;-2.77;100.00
53522;BME280;39398;48.382;9.802;2023-01-27T03:20:59;93742.09;;;-2.88;100.00
53522;BME280;39398;48.382;9.802;2023-01-27T03:26:04;93736.63;;;-2.83;100.00
53522;BME280;39398;48.382;9.802;2023-01-27T03:31:09;93742.94;;;-2.87;100.00
53522;BME280;39398;48.382;9.802;2023-01-27T03:36:12;93747.63;;;-2.92;100.00
53522;BME280;39398;48.382;9.802;2023-01-27T03:41:13;93749.97;;;-2.78;100.00
53522;BME280;39398;48.382;9.802;2023-01-27T03:46:16;93745.16;;;-2.94;100.00
53522;BME280;39398;48.382;9.802;2023-01-27T03:51:19;93753.78;;;-2.71;100.00
53522;BME280;39398;48.382;9.802;2023-01-27T03:56:21;93752.34;;;-2.86;100.00
53522;BME280;39398;48.382;9.802;2023-01-27T04:01:24;93762.34;;;-2.70;100.00
53522;BME280;39398;48.382;9.802;2023-01-27T04:06:27;93745.66;;;-2.44;100.00
53522;BME280;39398;48.382;9.802;2023-01-27T04:11:29;93758.81;;;-2.81;100.00
53522;BME280;39398;48.382;9.802;2023-01-27T04:16:34;93754.72;;;-2.38;100.00
53522;BME280;39398;48.382;9.802;2023-01-27T04:21:36;93749.78;;;-2.19;100.00
53522;BME280;39398;48.382;9.802;2023-01-27T04:26:38;93735.84;;;-1.84;100.00
53522;BME280;39398;48.382;9.802;2023-01-27T04:31:41;93736.75;;;-1.42;100.00
53522;BME280;39398;48.382;9.802;2023-01-27T04:36:42;93721.25;;;-1.21;100.00
53522;BME280;39398;48.382;9.802;2023-01-27T04:41:44;93715.84;;;-0.66;100.00
53522;BME280;39398;48.382;9.802;2023-01-27T04:46:49;93722.66;;;-0.65;100.00
53522;BME280;39398;48.382;9.802;2023-01-27T04:51:51;93730.94;;;-1.66;100.00
53522;BME280;39398;48.382;9.802;2023-01-27T04:56:55;93734.34;;;-2.09;100.00
53522;BME280;39398;48.382;9.802;2023-01-27T05:01:58;93741.41;;;-2.34;100.00
53522;BME280;39398;48.382;9.802;2023-01-27T05:07:00;93757.78;;;-2.44;100.00
53522;BME280;39398;48.382;9.802;2023-01-27T05:12:02;93760.56;;;-2.81;100.00
53522;BME280;39398;48.382;9.802;2023-01-27T05:17:05;93758.31;;;-2.86;100.00
53522;BME280;39398;48.382;9.802;2023-01-27T05:22:06;93771.25;;;-2.74;100.00
53522;BME280;39398;48.382;9.802;2023-01-27T05:27:08;93752.47;;;-2.43;100.00
53522;BME280;39398;48.382;9.802;2023-01-27T05:32:11;93751.41;;;-2.06;100.00
53522;BME280;39398;48.382;9.802;2023-01-27T05:37:12;93755.88;;;-2.20;100.00
53522;BME280;39398;48.382;9.802;2023-01-27T05:42:14;93774.53;;;-2.72;100.00
53522;BME280;39398;48.382;9.802;2023-01-27T05:47:17;93781.44;;;-2.84;100.00
53522;BME280;39398;48.382;9.802;2023-01-27T05:52:18;93777.34;;;-2.87;100.00
53522;BME280;39398;48.382;9.802;2023-01-27T05:57:20;93779.31;;;-3.01;100.00
53522;BME280;39398;48.382;9.802;2023-01-27T06:02:23;93778.06;;;-2.73;100.00
53522;BME280;39398;48.382;9.802;2023-01-27T06:07:25;93776.78;;;-2.79;100.00
53522;BME280;39398;48.382;9.802;2023-01-27T06:12:26;93778.66;;;-2.70;100.00
53522;BME280;39398;48.382;9.802;2023-01-27T06:17:29;93787.78;;;-2.99;100.00
53522;BME280;39398;48.382;9.802;2023-01-27T06:22:31;93780.56;;;-3.07;100.00
53522;BME280;39398;48.382;9.802;2023-01-27T06:27:32;93782.16;;;-2.82;100.00
53522;BME280;39398;48.382;9.802;2023-01-27T06:32:35;93798.78;;;-3.09;100.00
53522;BME280;39398;48.382;9.802;2023-01-27T06:37:37;93799.16;;;-2.91;100.00
53522;BME280;39398;48.382;9.802;2023-01-27T06:42:41;93803.69;;;-2.70;100.00
53522;BME280;39398;48.382;9.802;2023-01-27T06:47:44;93806.72;;;-2.65;100.00
53522;BME280;39398;48.382;9.802;2023-01-27T06:52:45;93813.78;;;-2.56;100.00
53522;BME280;39398;48.382;9.802;2023-01-27T06:57:47;93816.03;;;-2.74;100.00
53522;BME280;39398;48.382;9.802;2023-01-27T07:02:50;93830.38;;;-2.94;100.00
53522;BME280;39398;48.382;9.802;2023-01-27T07:07:51;93837.16;;;-3.04;100.00
53522;BME280;39398;48.382;9.802;2023-01-27T07:13:02;93842.91;;;-2.76;100.00
53522;BME280;39398;48.382;9.802;2023-01-27T07:18:05;93853.16;;;-2.99;100.00
53522;BME280;39398;48.382;9.802;2023-01-27T07:23:08;93845.50;;;-3.00;100.00
53522;BME280;39398;48.382;9.802;2023-01-27T07:28:10;93853.56;;;-3.16;100.00
53522;BME280;39398;48.382;9.802;2023-01-27T07:33:13;93854.94;;;-2.99;100.00
53522;BME280;39398;48.382;9.802;2023-01-27T07:38:14;93862.63;;;-2.75;100.00
53522;BME280;39398;48.382;9.802;2023-01-27T07:43:16;93854.94;;;-2.99;100.00
53522;BME280;39398;48.382;9.802;2023-01-27T07:48:19;93860.91;;;-3.23;100.00
53522;BME280;39398;48.382;9.802;2023-01-27T07:53:21;93863.28;;;-2.96;100.00
53522;BME280;39398;48.382;9.802;2023-01-27T07:58:22;93867.78;;;-3.11;100.00
53522;BME280;39398;48.382;9.802;2023-01-27T08:03:25;93866.59;;;-3.18;100.00
53522;BME280;39398;48.382;9.802;2023-01-27T08:08:27;93873.81;;;-2.99;100.00
53522;BME280;39398;48.382;9.802;2023-01-27T08:13:30;93873.03;;;-2.88;100.00
53522;BME280;39398;48.382;9.802;2023-01-27T08:18:33;93874.44;;;-2.84;100.00
53522;BME280;39398;48.382;9.802;2023-01-27T08:23:35;93880.59;;;-3.09;100.00
53522;BME280;39398;48.382;9.802;2023-01-27T08:28:38;93881.34;;;-3.20;100.00
53522;BME280;39398;48.382;9.802;2023-01-27T08:33:42;93899.50;;;-3.09;100.00
53522;BME280;39398;48.382;9.802;2023-01-27T08:38:44;93897.34;;;-3.15;100.00
53522;BME280;39398;48.382;9.802;2023-01-27T08:43:46;93892.66;;;-3.10;100.00
53522;BME280;39398;48.382;9.802;2023-01-27T08:48:49;93889.41;;;-3.00;100.00
53522;BME280;39398;48.382;9.802;2023-01-27T08:53:51;93888.34;;;-3.33;100.00
53522;BME280;39398;48.382;9.802;2023-01-27T08:58:53;93892.19;;;-3.15;100.00
53522;BME280;39398;48.382;9.802;2023-01-27T09:03:56;93883.06;;;-3.32;100.00
53522;BME280;39398;48.382;9.802;2023-01-27T09:08:57;93881.44;;;-3.45;100.00
53522;BME280;39398;48.382;9.802;2023-01-27T09:13:59;93876.38;;;-3.34;100.00
53522;BME280;39398;48.382;9.802;2023-01-27T09:19:02;93892.94;;;-3.49;100.00
53522;BME280;39398;48.382;9.802;2023-01-27T09:24:04;93894.41;;;-3.58;100.00
53522;BME280;39398;48.382;9.802;2023-01-27T09:29:05;93902.66;;;-3.53;100.00
53522;BME280;39398;48.382;9.802;2023-01-27T09:34:08;93907.13;;;-3.07;100.00
53522;BME280;39398;48.382;9.802;2023-01-27T09:39:10;93917.31;;;-2.46;100.00
53522;BME280;39398;48.382;9.802;2023-01-27T09:49:58;93909.47;;;-3.04;100.00
53522;BME280;39398;48.382;9.802;2023-01-27T09:55:10;93918.00;;;-2.91;100.00
53522;BME280;39398;48.382;9.802;2023-01-27T10:00:25;93915.63;;;-2.94;100.00
53522;BME280;39398;48.382;9.802;2023-01-27T10:05:59;93922.50;;;-2.82;100.00
53522;BME280;39398;48.382;9.802;2023-01-27T10:11:14;93923.59;;;-3.21;100.00
53522;BME280;39398;48.382;9.802;2023-01-27T10:16:35;93913.69;;;-2.79;100.00
53522;BME280;39398;48.382;9.802;2023-01-27T10:21:45;93924.31;;;-2.95;100.00
53522;BME280;39398;48.382;9.802;2023-01-27T10:26:55;93920.28;;;-2.40;100.00
53522;BME280;39398;48.382;9.802;2023-01-27T10:32:06;93930.09;;;-2.56;100.00
53522;BME280;39398;48.382;9.802;2023-01-27T10:37:20;93928.16;;;-2.76;100.00
53522;BME280;39398;48.382;9.802;2023-01-27T10:42:30;93921.88;;;-2.61;100.00
53522;BME280;39398;48.382;9.802;2023-01-27T10:47:45;93918.66;;;-2.76;100.00
53522;BME280;39398;48.382;9.802;2023-01-27T10:52:57;93928.91;;;-2.87;100.00
53522;BME280;39398;48.382;9.802;2023-01-27T10:58:03;93922.34;;;-2.56;100.00
53522;BME280;39398;48.382;9.802;2023-01-27T11:03:09;93920.41;;;-2.41;100.00
53522;BME280;39398;48.382;9.802;2023-01-27T11:08:17;93924.09;;;-2.68;100.00
53522;BME280;39398;48.382;9.802;2023-01-27T11:13:19;93930.56;;;-2.62;100.00
53522;BME280;39398;48.382;9.802;2023-01-27T11:18:22;93927.44;;;-2.54;100.00
53522;BME280;39398;48.382;9.802;2023-01-27T11:23:30;93907.78;;;-2.57;100.00
53522;BME280;39398;48.382;9.802;2023-01-27T11:28:37;93905.56;;;-2.50;100.00
53522;BME280;39398;48.382;9.802;2023-01-27T11:33:47;93903.75;;;-2.15;100.00
53522;BME280;39398;48.382;9.802;2023-01-27T11:38:53;93905.78;;;-2.65;100.00
53522;BME280;39398;48.382;9.802;2023-01-27T11:44:05;93906.13;;;-2.23;100.00
53522;BME280;39398;48.382;9.802;2023-01-27T11:49:08;93907.03;;;-2.24;100.00
53522;BME280;39398;48.382;9.802;2023-01-27T11:54:16;93917.09;;;-1.74;100.00
53522;BME280;39398;48.382;9.802;2023-01-27T11:59:22;93913.88;;;-2.12;100.00
53522;BME280;39398;48.382;9.802;2023-01-27T12:04:40;93912.97;;;-1.43;100.00
53522;BME280;39398;48.382;9.802;2023-01-27T12:09:47;93909.16;;;-2.18;100.00
53522;BME280;39398;48.382;9.802;2023-01-27T12:14:50;93912.69;;;-2.19;100.00
53522;BME280;39398;48.382;9.802;2023-01-27T12:19:54;93914.19;;;-2.27;100.00
53522;BME280;39398;48.382;9.802;2023-01-27T12:25:00;93903.03;;;-2.39;100.00
53522;BME280;39398;48.382;9.802;2023-01-27T12:30:05;93897.78;;;-1.93;100.00
53522;BME280;39398;48.382;9.802;2023-01-27T12:35:18;93882.84;;;-2.23;100.00
53522;BME280;39398;48.382;9.802;2023-01-27T12:40:23;93875.88;;;-2.34;100.00
53522;BME280;39398;48.382;9.802;2023-01-27T12:45:27;93872.88;;;-1.94;100.00
53522;BME280;39398;48.382;9.802;2023-01-27T12:50:30;93864.13;;;-2.38;100.00
53522;BME280;39398;48.382;9.802;2023-01-27T12:55:36;93871.53;;;-2.22;100.00
53522;BME280;39398;48.382;9.802;2023-01-27T13:00:44;93867.09;;;-2.08;100.00
53522;BME280;39398;48.382;9.802;2023-01-27T13:05:46;93868.47;;;-2.38;100.00
53522;BME280;39398;48.382;9.802;2023-01-27T13:10:53;93867.34;;;-2.00;100.00
53522;BME280;39398;48.382;9.802;2023-01-27T13:16:01;93876.63;;;-2.09;100.00
53522;BME280;39398;48.382;9.802;2023-01-27T13:21:12;93876.75;;;-1.88;100.00
53522;BME280;39398;48.382;9.802;2023-01-27T13:26:19;93873.16;;;-1.53;100.00
53522;BME280;39398;48.382;9.802;2023-01-27T13:31:32;93872.81;;;-1.60;100.00
53522;BME280;39398;48.382;9.802;2023-01-27T13:36:41;93870.34;;;-1.39;100.00
53522;BME280;39398;48.382;9.802;2023-01-27T13:41:48;93871.09;;;-1.59;100.00
53522;BME280;39398;48.382;9.802;2023-01-27T13:46:55;93875.81;;;-1.87;100.00
53522;BME280;39398;48.382;9.802;2023-01-27T13:51:57;93888.94;;;-1.45;100.00
53522;BME280;39398;48.382;9.802;2023-01-27T13:57:10;93886.13;;;-1.76;100.00
53522;BME280;39398;48.382;9.802;2023-01-27T14:02:32;93895.38;;;-1.28;100.00
53522;BME280;39398;48.382;9.802;2023-01-27T14:07:42;93885.91;;;-1.07;100.00
53522;BME280;39398;48.382;9.802;2023-01-27T14:12:59;93899.09;;;-1.87;100.00
53522;BME280;39398;48.382;9.802;2023-01-27T14:18:07;93906.94;;;-1.89;100.00
53522;BME280;39398;48.382;9.802;2023-01-27T14:23:25;93895.66;;;-1.65;100.00
53522;BME280;39398;48.382;9.802;2023-01-27T14:28:50;93907.06;;;-1.79;100.00
53522;BME280;39398;48.382;9.802;2023-01-27T14:34:01;93896.94;;;-2.04;100.00
53522;BME280;39398;48.382;9.802;2023-01-27T14:39:11;93899.44;;;-1.80;100.00
53522;BME280;39398;48.382;9.802;2023-01-27T14:44:30;93900.44;;;-2.28;100.00
53522;BME280;39398;48.382;9.802;2023-01-27T14:49:58;93901.72;;;-2.34;100.00
53522;BME280;39398;48.382;9.802;2023-01-27T14:55:15;93919.97;;;-2.24;100.00
53522;BME280;39398;48.382;9.802;2023-01-27T15:00:30;93918.91;;;-2.21;100.00
53522;BME280;39398;48.382;9.802;2023-01-27T15:05:39;93915.78;;;-1.91;100.00
53522;BME280;39398;48.382;9.802;2023-01-27T15:10:49;93922.44;;;-2.11;100.00
53522;BME280;39398;48.382;9.802;2023-01-27T15:16:28;93923.66;;;-1.93;100.00
53522;BME280;39398;48.382;9.802;2023-01-27T15:21:39;93939.06;;;-2.02;100.00
53522;BME280;39398;48.382;9.802;2023-01-27T15:26:46;93938.81;;;-1.99;100.00
53522;BME280;39398;48.382;9.802;2023-01-27T15:32:10;93935.50;;;-2.13;100.00
53522;BME280;39398;48.382;9.802;2023-01-27T15:37:19;93935.63;;;-2.14;100.00
53522;BME280;39398;48.382;9.802;2023-01-27T15:42:21;93938.13;;;-1.79;100.00
53522;BME280;39398;48.382;9.802;2023-01-27T15:47:25;93938.59;;;-1.74;100.00
53522;BME280;39398;48.382;9.802;2023-01-27T15:52:28;93948.03;;;-1.84;100.00
53522;BME280;39398;48.382;9.802;2023-01-27T15:57:33;93946.47;;;-1.98;100.00
53522;BME280;39398;48.382;9.802;2023-01-27T16:02:38;93951.44;;;-1.83;100.00
53522;BME280;39398;48.382;9.802;2023-01-27T16:07:46;93956.59;;;-1.83;100.00
53522;BME280;39398;48.382;9.802;2023-01-27T16:13:11;93962.94;;;-1.99;100.00
53522;BME280;39398;48.382;9.802;2023-01-27T16:18:39;93972.13;;;-1.83;100.00
53522;BME280;39398;48.382;9.802;2023-01-27T16:23:47;93978.69;;;-2.02;100.00
53522;BME280;39398;48.382;9.802;2023-01-27T16:28:56;93973.19;;;-1.86;100.00
53522;BME280;39398;48.382;9.802;2023-01-27T16:34:18;93979.63;;;-1.92;100.00
53522;BME280;39398;48.382;9.802;2023-01-27T16:39:25;93987.44;;;-1.80;100.00
53522;BME280;39398;48.382;9.802;2023-01-27T16:44:37;93982.72;;;-1.98;100.00
53522;BME280;39398;48.382;9.802;2023-01-27T16:49:41;93988.94;;;-2.00;100.00
53522;BME280;39398;48.382;9.802;2023-01-27T16:54:43;93992.00;;;-2.30;100.00
53522;BME280;39398;48.382;9.802;2023-01-27T16:59:46;93990.72;;;-2.36;100.00
53522;BME280;39398;48.382;9.802;2023-01-27T17:04:50;93995.53;;;-2.31;100.00
53522;BME280;39398;48.382;9.802;2023-01-27T17:09:54;93998.31;;;-2.11;100.00
53522;BME280;39398;48.382;9.802;2023-01-27T17:14:57;94000.72;;;-2.20;100.00
53522;BME280;39398;48.382;9.802;2023-01-27T17:20:02;94004.63;;;-2.15;100.00
53522;BME280;39398;48.382;9.802;2023-01-27T17:25:12;94005.75;;;-2.30;100.00
53522;BME280;39398;48.382;9.802;2023-01-27T17:30:18;94020.72;;;-2.46;100.00
53522;BME280;39398;48.382;9.802;2023-01-27T17:35:23;94012.16;;;-2.23;100.00
53522;BME280;39398;48.382;9.802;2023-01-27T17:40:25;94022.19;;;-2.42;100.00
53522;BME280;39398;48.382;9.802;2023-01-27T17:45:28;94025.66;;;-2.54;100.00
53522;BME280;39398;48.382;9.802;2023-01-27T17:50:36;94029.50;;;-2.36;100.00
53522;BME280;39398;48.382;9.802;2023-01-27T17:55:39;94024.03;;;-2.44;100.00
53522;BME280;39398;48.382;9.802;2023-01-27T18:00:42;94020.78;;;-2.59;100.00
53522;BME280;39398;48.382;9.802;2023-01-27T18:05:47;94018.22;;;-2.35;100.00
53522;BME280;39398;48.382;9.802;2023-01-27T18:10:50;94019.25;;;-2.38;100.00
53522;BME280;39398;48.382;9.802;2023-01-27T18:15:57;94037.91;;;-2.45;100.00
53522;BME280;39398;48.382;9.802;2023-01-27T18:21:13;94049.00;;;-2.56;100.00
53522;BME280;39398;48.382;9.802;2023-01-27T18:26:19;94046.06;;;-2.39;100.00
53522;BME280;39398;48.382;9.802;2023-01-27T18:31:23;94053.44;;;-2.45;100.00
53522;BME280;39398;48.382;9.802;2023-01-27T18:36:30;94051.75;;;-2.46;100.00
53522;BME280;39398;48.382;9.802;2023-01-27T18:41:32;94056.50;;;-2.40;100.00
53522;BME280;39398;48.382;9.802;2023-01-27T18:46:34;94058.25;;;-2.41;100.00
53522;BME280;39398;48.382;9.802;2023-01-27T18:51:37;94059.63;;;-2.48;100.00
53522;BME280;39398;48.382;9.802;2023-01-27T18:56:38;94048.34;;;-2.47;100.00
53522;BME280;39398;48.382;9.802;2023-01-27T19:01:40;94037.59;;;-2.65;100.00
53522;BME280;39398;48.382;9.802;2023-01-27T19:06:43;94057.97;;;-2.73;100.00
53522;BME280;39398;48.382;9.802;2023-01-27T19:11:44;94053.69;;;-2.61;100.00
53522;BME280;39398;48.382;9.802;2023-01-27T19:16:46;94053.56;;;-2.60;100.00
53522;BME280;39398;48.382;9.802;2023-01-27T19:21:49;94060.13;;;-2.43;100.00
53522;BME280;39398;48.382;9.802;2023-01-27T19:26:51;94067.03;;;-2.43;100.00
53522;BME280;39398;48.382;9.802;2023-01-27T19:31:52;94068.78;;;-2.55;100.00
53522;BME280;39398;48.382;9.802;2023-01-27T19:36:55;94069.75;;;-2.45;100.00
53522;BME280;39398;48.382;9.802;2023-01-27T19:41:57;94063.97;;;-2.24;100.00
53522;BME280;39398;48.382;9.802;2023-01-27T19:46:59;94065.06;;;-2.64;100.00
53522;BME280;39398;48.382;9.802;2023-01-27T19:52:02;94064.03;;;-2.37;100.00
53522;BME280;39398;48.382;9.802;2023-01-27T19:57:04;94074.16;;;-2.34;100.00
53522;BME280;39398;48.382;9.802;2023-01-27T20:02:07;94076.91;;;-2.24;100.00
53522;BME280;39398;48.382;9.802;2023-01-27T20:07:12;94079.63;;;-2.15;100.00
53522;BME280;39398;48.382;9.802;2023-01-27T20:12:13;94082.63;;;-2.32;100.00
53522;BME280;39398;48.382;9.802;2023-01-27T20:17:16;94085.84;;;-2.17;100.00
53522;BME280;39398;48.382;9.802;2023-01-27T20:22:19;94092.47;;;-2.37;100.00
53522;BME280;39398;48.382;9.802;2023-01-27T20:27:21;94087.69;;;-2.30;100.00
53522;BME280;39398;48.382;9.802;2023-01-27T20:32:22;94091.88;;;-2.41;100.00
53522;BME280;39398;48.382;9.802;2023-01-27T20:37:25;94093.84;;;-2.44;100.00
53522;BME280;39398;48.382;9.802;2023-01-27T20:42:28;94096.44;;;-2.44;100.00
53522;BME280;39398;48.382;9.802;2023-01-27T20:47:30;94094.22;;;-2.38;100.00
53522;BME280;39398;48.382;9.802;2023-01-27T20:52:35;94093.44;;;-2.27;100.00
53522;BME280;39398;48.382;9.802;2023-01-27T20:57:36;94100.00;;;-2.34;100.00
53522;BME280;39398;48.382;9.802;2023-01-27T21:02:38;94098.41;;;-2.48;100.00
53522;BME280;39398;48.382;9.802;2023-01-27T21:07:41;94099.78;;;-2.31;100.00
53522;BME280;39398;48.382;9.802;2023-01-27T21:12:43;94093.09;;;-2.70;100.00
53522;BME280;39398;48.382;9.802;2023-01-27T21:17:44;94093.84;;;-2.44;100.00
53522;BME280;39398;48.382;9.802;2023-01-27T21:22:47;94082.81;;;-2.59;100.00
53522;BME280;39398;48.382;9.802;2023-01-27T21:27:50;94083.38;;;-2.43;100.00
53522;BME280;39398;48.382;9.802;2023-01-27T21:32:53;94100.44;;;-2.64;100.00
53522;BME280;39398;48.382;9.802;2023-01-27T21:37:56;94103.84;;;-2.40;100.00
53522;BME280;39398;48.382;9.802;2023-01-27T21:42:57;94099.94;;;-2.21;100.00
53522;BME280;39398;48.382;9.802;2023-01-27T21:47:59;94097.28;;;-2.57;100.00
53522;BME280;39398;48.382;9.802;2023-01-27T21:53:07;94098.25;;;-2.34;100.00
53522;BME280;39398;48.382;9.802;2023-01-27T21:58:08;94098.81;;;-2.41;100.00
53522;BME280;39398;48.382;9.802;2023-01-27T22:03:10;94105.00;;;-2.44;100.00
53522;BME280;39398;48.382;9.802;2023-01-27T22:08:13;94113.41;;;-2.53;100.00
53522;BME280;39398;48.382;9.802;2023-01-27T22:13:15;94104.78;;;-2.41;100.00
53522;BME280;39398;48.382;9.802;2023-01-27T22:18:16;94103.56;;;-2.24;100.00
53522;BME280;39398;48.382;9.802;2023-01-27T22:23:19;94101.78;;;-2.35;100.00
53522;BME280;39398;48.382;9.802;2023-01-27T22:28:21;94109.25;;;-2.19;100.00
53522;BME280;39398;48.382;9.802;2023-01-27T22:33:23;94113.75;;;-2.34;100.00
53522;BME280;39398;48.382;9.802;2023-01-27T22:38:26;94109.13;;;-2.41;100.00
53522;BME280;39398;48.382;9.802;2023-01-27T22:43:28;94111.16;;;-2.34;100.00
53522;BME280;39398;48.382;9.802;2023-01-27T22:48:30;94110.03;;;-2.29;100.00
53522;BME280;39398;48.382;9.802;2023-01-27T22:53:33;94112.50;;;-2.28;100.00
53522;BME280;39398;48.382;9.802;2023-01-27T22:58:34;94106.00;;;-2.34;100.00
53522;BME280;39398;48.382;9.802;2023-01-27T23:03:36;94101.22;;;-2.03;100.00
53522;BME280;39398;48.382;9.802;2023-01-27T23:08:39;94106.97;;;-1.99;100.00
53522;BME280;39398;48.382;9.802;2023-01-27T23:13:40;94105.59;;;-1.92;100.00
53522;BME280;39398;48.382;9.802;2023-01-27T23:18:42;94099.06;;;-1.85;100.00
53522;BME280;39398;48.382;9.802;2023-01-27T23:23:45;94106.47;;;-2.04;100.00
53522;BME280;39398;48.382;9.802;2023-01-27T23:28:46;94103.16;;;-1.82;100.00
53522;BME280;39398;48.382;9.802;2023-01-27T23:33:48;94107.59;;;-1.96;100.00
53522;BME280;39398;48.382;9.802;2023-01-27T23:38:51;94103.97;;;-2.17;100.00
53522;BME280;39398;48.382;9.802;2023-01-27T23:43:58;94101.66;;;-2.33;100.00
53522;BME280;39398;48.382;9.802;2023-01-27T23:48:59;94105.63;;;-2.16;100.00
53522;BME280;39398;48.382;9.802;2023-01-27T23:54:03;94095.59;;;-2.21;100.00
53522;BME280;39398;48.382;9.802;2023-01-27T23:59:04;94105.78;;;-2.06;100.00
